Time;durP1;ratioP1;P1;durP2;ratioP2;P2;SDS_P1;SDS_P2;PMS_P1;PMS_P2;Temp;Humidity;BMP_temperature;BMP_pressure;BME280_temperature;BME280_humidity;BME280_pressure;Samples;Min_cycle;Max_cycle;Signal;HPM_P1;HPM_P2
2021/12/18 00:00:47;;;;;;;23.25;13.85;;;9.40;99.90;;;;;;4941537;28;20034;-87
2021/12/18 00:03:19;;;;;;;26.42;15.27;;;9.40;99.90;;;;;;4958537;28;20041;-86
2021/12/18 00:05:44;;;;;;;23.15;13.00;;;9.50;99.90;;;;;;4941573;28;20038;-86
2021/12/18 00:08:13;;;;;;;27.67;14.80;;;9.40;99.90;;;;;;4941581;28;20045;-86
2021/12/18 00:10:41;;;;;;;27.35;15.32;;;9.40;99.90;;;;;;4941586;28;20030;-86
2021/12/18 00:13:07;;;;;;;31.83;16.20;;;9.40;99.90;;;;;;4942022;28;20129;-86
2021/12/18 00:15:36;;;;;;;27.97;16.03;;;9.40;99.90;;;;;;4941625;28;20398;-86
2021/12/18 00:18:05;;;;;;;28.80;16.80;;;9.40;99.90;;;;;;4941422;28;20039;-86
2021/12/18 00:20:36;;;;;;;29.33;15.50;;;9.40;99.90;;;;;;4941721;28;20050;-87
2021/12/18 00:23:02;;;;;;;30.60;16.27;;;9.30;99.90;;;;;;4958656;28;20085;-86
2021/12/18 00:25:28;;;;;;;29.67;16.70;;;9.40;99.90;;;;;;4959730;28;20420;-87
2021/12/18 00:27:54;;;;;;;33.03;18.20;;;9.40;99.90;;;;;;4959176;28;20062;-87
2021/12/18 00:30:20;;;;;;;30.30;16.70;;;9.40;99.90;;;;;;4943364;28;20034;-87
2021/12/18 00:32:46;;;;;;;35.33;18.00;;;9.40;99.90;;;;;;4942625;28;20138;-87
2021/12/18 00:35:12;;;;;;;34.13;18.57;;;9.40;99.90;;;;;;4956449;28;20034;-88
2021/12/18 00:37:37;;;;;;;37.43;19.27;;;9.40;99.90;;;;;;4940014;28;20382;-88
2021/12/18 00:40:09;;;;;;;31.93;18.00;;;9.40;99.90;;;;;;4940112;28;20035;-88
2021/12/18 00:45:09;;;;;;;33.10;17.57;;;9.40;99.90;;;;;;4973537;28;20054;-87
2021/12/18 00:47:35;;;;;;;39.27;17.93;;;9.40;99.90;;;;;;4955437;28;20031;-87
2021/12/18 00:50:02;;;;;;;39.37;20.30;;;9.40;99.90;;;;;;4939989;28;20041;-88
2021/12/18 00:52:28;;;;;;;41.93;21.10;;;9.30;99.90;;;;;;4940100;28;20058;-88
2021/12/18 00:54:54;;;;;;;38.97;19.73;;;9.30;99.90;;;;;;4956034;28;20031;-88
2021/12/18 00:57:26;;;;;;;40.63;18.87;;;9.30;99.90;;;;;;4939996;28;20037;-88
2021/12/18 00:59:54;;;;;;;40.23;19.43;;;9.30;99.90;;;;;;4955919;28;20482;-88
2021/12/18 01:02:20;;;;;;;39.90;18.93;;;9.30;99.90;;;;;;4956009;28;20413;-88
2021/12/18 01:04:46;;;;;;;40.17;19.90;;;9.30;99.90;;;;;;4940111;28;20039;-88
2021/12/18 01:07:12;;;;;;;39.27;18.20;;;9.30;99.90;;;;;;4955866;28;20035;-88
2021/12/18 01:09:54;;;;;;;42.60;19.00;;;9.20;99.90;;;;;;4939597;28;20035;-88
2021/12/18 01:12:26;;;;;;;37.80;19.50;;;9.30;99.90;;;;;;4939946;28;20034;-88
2021/12/18 01:15:13;;;;;;;41.63;19.90;;;9.30;99.90;;;;;;4973034;28;20034;-87
2021/12/18 01:23:08;;;;;;;43.40;19.33;;;9.20;99.90;;;;;;4955766;28;20035;-88
2021/12/18 01:25:34;;;;;;;43.23;19.40;;;9.20;99.90;;;;;;4955694;28;20042;-88
2021/12/18 01:28:00;;;;;;;38.53;18.13;;;9.20;99.90;;;;;;4939565;28;20027;-87
2021/12/18 01:30:25;;;;;;;38.00;17.90;;;9.20;99.90;;;;;;4939605;28;20048;-87
2021/12/18 01:32:51;;;;;;;38.70;18.60;;;9.10;99.90;;;;;;4955686;28;20027;-88
2021/12/18 01:35:18;;;;;;;37.80;18.07;;;9.20;99.90;;;;;;4939720;28;20374;-88
2021/12/18 01:37:45;;;;;;;35.90;17.77;;;9.20;99.90;;;;;;4939405;28;20031;-88
2021/12/18 01:40:11;;;;;;;35.53;17.07;;;9.20;99.90;;;;;;4939669;28;20113;-88
2021/12/18 01:45:48;;;;;;;35.85;18.38;;;9.20;99.90;;;;;;4972862;28;20035;-87
2021/12/18 01:53:36;;;;;;;44.97;21.30;;;9.20;99.90;;;;;;4956013;28;20093;-86
2021/12/18 01:56:02;;;;;;;45.17;21.93;;;9.10;99.90;;;;;;4956176;28;20031;-87
2021/12/18 01:58:28;;;;;;;49.93;22.53;;;9.20;99.90;;;;;;4940440;28;20027;-86
2021/12/18 02:00:56;;;;;;;46.80;21.83;;;9.10;99.90;;;;;;4943488;28;20053;-86
2021/12/18 02:03:24;;;;;;;49.00;22.93;;;9.20;99.90;;;;;;4959608;28;20397;-87
2021/12/18 02:05:52;;;;;;;46.33;23.60;;;9.10;99.90;;;;;;4943631;28;20559;-86
2021/12/18 02:08:20;;;;;;;50.40;24.40;;;9.20;99.90;;;;;;4976393;28;20442;-87
2021/12/18 02:10:56;;;;;;;49.90;24.60;;;9.30;99.90;;;;;;4959136;28;20443;-86
2021/12/18 02:21:13;;;;;;;55.40;27.33;;;9.20;99.90;;;;;;4976193;28;20397;-87
2021/12/18 02:23:40;;;;;;;50.63;27.47;;;9.30;99.90;;;;;;4943601;28;20057;-86
2021/12/18 02:26:06;;;;;;;52.87;26.87;;;9.30;99.90;;;;;;4943076;28;20038;-87
2021/12/18 02:28:31;;;;;;;52.97;25.67;;;9.30;99.90;;;;;;4942570;28;20027;-87
2021/12/18 02:30:58;;;;;;;55.77;27.27;;;9.20;99.90;;;;;;4942543;28;20409;-87
2021/12/18 02:33:25;;;;;;;52.37;26.33;;;9.20;99.90;;;;;;4942564;28;20035;-86
2021/12/18 02:35:53;;;;;;;56.80;27.13;;;9.20;99.90;;;;;;4958884;28;20035;-86
2021/12/18 02:38:32;;;;;;;54.20;27.00;;;9.30;99.90;;;;;;4958510;28;20118;-87
2021/12/18 02:41:15;;;;;;;48.88;25.98;;;9.20;99.90;;;;;;4942722;28;20046;-87
2021/12/18 02:43:42;;;;;;;49.63;26.00;;;9.20;99.90;;;;;;4958838;28;20034;-87
2021/12/18 02:46:09;;;;;;;50.90;25.37;;;9.20;99.90;;;;;;4942920;28;20073;-86
2021/12/18 02:48:40;;;;;;;48.37;25.07;;;9.20;99.90;;;;;;4958399;28;20038;-87
2021/12/18 02:51:08;;;;;;;46.93;24.27;;;9.20;99.90;;;;;;4942689;28;20042;-87
2021/12/18 02:53:35;;;;;;;39.30;21.60;;;9.20;99.90;;;;;;4942515;28;20034;-87
2021/12/18 02:56:06;;;;;;;39.17;20.80;;;9.20;99.90;;;;;;4958894;28;20026;-87
2021/12/18 02:58:39;;;;;;;36.67;19.50;;;9.20;99.90;;;;;;4942502;28;20397;-87
2021/12/18 03:01:07;;;;;;;40.03;20.13;;;9.20;99.90;;;;;;4958629;28;20516;-87
2021/12/18 03:03:36;;;;;;;35.17;18.33;;;9.20;99.90;;;;;;4942677;28;20034;-87
2021/12/18 03:25:09;;;;;;;36.77;18.00;;;9.20;99.90;;;;;;4958079;28;20035;-87
2021/12/18 03:27:36;;;;;;;35.70;17.73;;;9.10;99.90;;;;;;4957845;28;20035;-86
2021/12/18 03:30:03;;;;;;;34.33;17.03;;;9.10;99.90;;;;;;4958292;28;20042;-87
2021/12/18 03:32:29;;;;;;;34.80;18.07;;;9.20;99.90;;;;;;4941854;28;20035;-87
2021/12/18 03:34:55;;;;;;;34.33;17.70;;;9.10;99.90;;;;;;4957968;28;20430;-87
2021/12/18 03:37:21;;;;;;;30.70;16.57;;;9.10;99.90;;;;;;4942063;28;20035;-87
2021/12/18 03:39:47;;;;;;;33.10;17.93;;;9.20;99.90;;;;;;4941695;28;20046;-87
2021/12/18 03:42:13;;;;;;;34.33;18.40;;;9.10;99.90;;;;;;4941848;28;20023;-87
2021/12/18 03:44:39;;;;;;;33.37;16.93;;;9.10;99.90;;;;;;4942018;28;20486;-86
2021/12/18 03:47:06;;;;;;;31.40;16.50;;;9.10;99.90;;;;;;4941820;28;20030;-87
2021/12/18 03:49:32;;;;;;;35.77;17.57;;;9.10;99.90;;;;;;4958258;28;20062;-87
2021/12/18 03:51:58;;;;;;;33.73;16.73;;;9.20;99.90;;;;;;4942060;28;20442;-88
2021/12/18 03:54:24;;;;;;;31.20;17.27;;;9.20;99.90;;;;;;4941782;28;20129;-87
2021/12/18 03:56:50;;;;;;;37.43;16.90;;;9.10;99.90;;;;;;4941452;28;20035;-88
2021/12/18 03:59:16;;;;;;;33.33;17.83;;;9.20;99.90;;;;;;4957511;28;20035;-86
2021/12/18 04:01:42;;;;;;;32.53;17.77;;;9.20;99.90;;;;;;4941570;28;20031;-87
2021/12/18 04:04:08;;;;;;;34.17;17.53;;;9.20;99.90;;;;;;4941207;28;20081;-87
2021/12/18 04:06:37;;;;;;;33.47;17.17;;;9.20;99.90;;;;;;4941353;28;20096;-87
2021/12/18 04:09:03;;;;;;;34.20;16.52;;;9.10;99.90;;;;;;4941448;28;20034;-87
2021/12/18 04:11:29;;;;;;;36.40;18.40;;;9.10;99.90;;;;;;4957321;28;20470;-87
2021/12/18 04:13:55;;;;;;;36.77;18.73;;;9.10;99.90;;;;;;4941564;28;20045;-86
2021/12/18 04:16:21;;;;;;;41.17;19.50;;;9.10;99.90;;;;;;4941417;28;20053;-87
2021/12/18 04:18:47;;;;;;;37.70;18.70;;;9.10;99.90;;;;;;4941045;28;20509;-87
2021/12/18 04:21:13;;;;;;;35.60;18.13;;;9.20;99.90;;;;;;4956565;28;20027;-87
2021/12/18 04:23:39;;;;;;;36.17;18.43;;;9.10;99.90;;;;;;4941024;28;20437;-87
2021/12/18 04:26:04;;;;;;;38.50;17.83;;;9.20;99.90;;;;;;4957106;28;20035;-88
2021/12/18 04:28:30;;;;;;;38.27;18.70;;;9.10;99.90;;;;;;4956929;28;20037;-87
2021/12/18 04:30:57;;;;;;;38.97;18.10;;;9.20;99.90;;;;;;4941100;28;20379;-87
2021/12/18 04:33:23;;;;;;;33.00;16.10;;;9.20;99.90;;;;;;4940900;28;20031;-87
2021/12/18 04:35:49;;;;;;;37.50;18.27;;;9.20;99.90;;;;;;4941542;28;20026;-86
2021/12/18 04:38:15;;;;;;;40.17;18.57;;;9.20;99.90;;;;;;4941137;28;20050;-86
2021/12/18 04:40:43;;;;;;;40.43;19.47;;;9.10;99.90;;;;;;4957088;28;20038;-86
2021/12/18 04:43:09;;;;;;;40.80;19.10;;;9.10;99.90;;;;;;4957302;28;20031;-87
2021/12/18 04:45:35;;;;;;;41.30;19.07;;;9.10;99.90;;;;;;4941402;28;20033;-87
2021/12/18 04:48:01;;;;;;;35.50;16.57;;;9.10;99.90;;;;;;4957450;28;20027;-87
2021/12/18 04:50:27;;;;;;;36.33;15.77;;;9.10;99.90;;;;;;4957408;28;20026;-87
2021/12/18 04:52:53;;;;;;;35.43;15.73;;;9.10;99.90;;;;;;4941129;28;20486;-86
2021/12/18 04:55:19;;;;;;;35.33;15.87;;;9.10;99.90;;;;;;4940935;28;20043;-87
2021/12/18 04:57:45;;;;;;;31.90;14.60;;;9.10;99.90;;;;;;4956912;28;20037;-87
2021/12/18 05:00:16;;;;;;;35.83;15.93;;;9.10;99.90;;;;;;4941232;28;20026;-86
2021/12/18 05:02:44;;;;;;;35.57;15.40;;;9.10;99.90;;;;;;4941128;28;20134;-87
2021/12/18 05:05:13;;;;;;;33.13;15.87;;;9.10;99.90;;;;;;4956931;28;20033;-87
2021/12/18 05:07:39;;;;;;;34.58;16.35;;;9.10;99.90;;;;;;4957245;28;20074;-88
2021/12/18 05:10:06;;;;;;;40.03;17.20;;;9.10;99.90;;;;;;4941138;28;20039;-88
2021/12/18 05:12:33;;;;;;;32.07;16.10;;;9.20;99.90;;;;;;4957010;28;20042;-90
2021/12/18 05:14:58;;;;;;;38.73;16.27;;;9.20;99.90;;;;;;4939991;28;20373;-87
2021/12/18 05:17:24;;;;;;;35.17;16.40;;;9.20;99.90;;;;;;4960868;28;20112;-88
2021/12/18 05:19:50;;;;;;;36.77;16.07;;;9.10;99.90;;;;;;4988497;28;20117;-87
2021/12/18 05:22:16;;;;;;;36.23;15.50;;;9.10;99.90;;;;;;4968147;28;20129;-88
2021/12/18 05:24:42;;;;;;;38.93;16.70;;;9.10;99.90;;;;;;4976212;28;20061;-88
2021/12/18 05:27:08;;;;;;;35.93;16.70;;;9.10;99.90;;;;;;4993970;28;20026;-86
2021/12/18 05:29:34;;;;;;;42.60;17.80;;;9.10;99.90;;;;;;4977750;28;20045;-85
2021/12/18 05:31:59;;;;;;;41.87;17.03;;;9.00;99.90;;;;;;4994434;28;20104;-86
2021/12/18 05:34:32;;;;;;;38.70;17.00;;;9.00;99.90;;;;;;4981090;28;20040;-86
2021/12/18 05:39:27;;;;;;;36.53;15.30;;;8.90;99.90;;;;;;5015058;28;20026;-86
2021/12/18 05:41:53;;;;;;;41.33;16.95;;;8.90;99.90;;;;;;5015092;28;20052;-86
2021/12/18 05:44:21;;;;;;;34.67;15.43;;;8.90;99.90;;;;;;4980787;28;20141;-86
2021/12/18 05:46:48;;;;;;;36.83;15.40;;;8.90;99.90;;;;;;4981025;28;20041;-86
2021/12/18 05:49:14;;;;;;;39.23;15.70;;;8.90;99.90;;;;;;4980799;28;20279;-84
2021/12/18 05:51:40;;;;;;;39.10;16.13;;;8.90;99.90;;;;;;4982193;28;20030;-88
2021/12/18 05:54:06;;;;;;;35.97;15.20;;;8.90;99.90;;;;;;4981628;28;20034;-86
2021/12/18 05:56:32;;;;;;;36.90;15.23;;;8.90;99.90;;;;;;4980786;28;20025;-86
2021/12/18 05:58:59;;;;;;;36.67;15.33;;;8.80;99.90;;;;;;4980432;28;20077;-86
2021/12/18 06:01:26;;;;;;;34.10;15.30;;;8.80;99.90;;;;;;4980955;28;20037;-86
2021/12/18 06:03:53;;;;;;;35.83;15.30;;;8.70;99.90;;;;;;4997297;28;20042;-86
2021/12/18 06:06:20;;;;;;;36.97;15.67;;;8.80;99.90;;;;;;4981254;28;20575;-86
2021/12/18 06:08:48;;;;;;;41.92;16.23;;;8.80;99.90;;;;;;4980703;28;20053;-86
2021/12/18 06:11:16;;;;;;;38.10;15.17;;;8.90;99.90;;;;;;4981401;28;20072;-86
2021/12/18 06:13:48;;;;;;;37.10;15.23;;;8.90;99.90;;;;;;4978985;28;20097;-86
2021/12/18 06:16:14;;;;;;;36.37;14.23;;;8.80;99.90;;;;;;4963455;28;20061;-86
2021/12/18 06:18:44;;;;;;;33.63;15.27;;;8.90;99.90;;;;;;4961029;28;20038;-87
2021/12/18 06:21:13;;;;;;;37.87;15.33;;;8.90;99.90;;;;;;4961561;28;20121;-86
2021/12/18 06:23:40;;;;;;;29.08;13.23;;;9.00;99.90;;;;;;4961828;28;20092;-86
2021/12/18 06:26:06;;;;;;;29.47;12.07;;;9.00;99.90;;;;;;4962021;28;20503;-86
2021/12/18 06:28:31;;;;;;;22.03;11.47;;;9.00;99.90;;;;;;4995095;28;20026;-86
2021/12/18 06:30:57;;;;;;;23.90;10.27;;;9.00;99.90;;;;;;4977885;28;20408;-86
2021/12/18 06:33:23;;;;;;;22.07;9.90;;;9.00;99.90;;;;;;4961985;28;20034;-85
2021/12/18 06:35:49;;;;;;;19.77;8.97;;;9.10;99.90;;;;;;4978906;28;20126;-85
2021/12/18 06:38:15;;;;;;;20.87;9.27;;;9.10;99.90;;;;;;4993948;28;20022;-85
2021/12/18 06:40:41;;;;;;;23.43;8.97;;;9.10;99.90;;;;;;4978229;28;20050;-85
2021/12/18 06:43:07;;;;;;;20.03;7.80;;;9.10;99.90;;;;;;4977816;28;20420;-85
2021/12/18 06:45:33;;;;;;;16.73;8.13;;;9.10;99.90;;;;;;4961502;28;20046;-85
2021/12/18 06:47:58;;;;;;;14.40;7.10;;;9.10;99.90;;;;;;4961671;28;20031;-86
2021/12/18 06:50:24;;;;;;;17.87;7.63;;;9.10;99.90;;;;;;4961285;28;20034;-89
2021/12/18 06:52:50;;;;;;;15.20;7.40;;;9.00;99.90;;;;;;4976866;28;20460;-87
2021/12/18 06:55:16;;;;;;;17.43;7.23;;;9.10;99.90;;;;;;4962618;28;20125;-88
2021/12/18 06:57:42;;;;;;;17.83;8.57;;;9.10;99.90;;;;;;4976935;28;20030;-85
2021/12/18 07:00:11;;;;;;;21.03;9.00;;;9.10;99.90;;;;;;4960927;28;20037;-86
2021/12/18 07:02:38;;;;;;;19.02;9.60;;;9.10;99.90;;;;;;4978691;28;20034;-87
2021/12/18 07:05:04;;;;;;;16.97;7.77;;;9.10;99.90;;;;;;4961735;28;20057;-87
2021/12/18 07:07:30;;;;;;;15.37;7.77;;;9.10;99.90;;;;;;4979461;28;20100;-84
2021/12/18 07:09:56;;;;;;;21.77;8.70;;;9.10;99.90;;;;;;4981526;28;20397;-86
2021/12/18 07:12:22;;;;;;;15.73;8.30;;;9.10;99.90;;;;;;4982294;28;20093;-88
2021/12/18 07:14:48;;;;;;;18.87;8.57;;;9.10;99.90;;;;;;4967550;28;20034;-88
2021/12/18 07:17:42;;;;;;;21.23;9.77;;;9.10;99.90;;;;;;4991081;28;20065;-90
2021/12/18 07:20:09;;;;;;;21.52;8.95;;;9.10;99.90;;;;;;4963268;28;20049;-87
2021/12/18 07:22:35;;;;;;;20.37;9.27;;;9.10;99.90;;;;;;4960417;28;20057;-85
2021/12/18 07:25:01;;;;;;;19.10;8.67;;;9.10;99.90;;;;;;4978035;28;20034;-88
2021/12/18 07:27:27;;;;;;;21.90;9.33;;;9.00;99.90;;;;;;4977379;28;20034;-84
2021/12/18 07:29:53;;;;;;;20.37;9.00;;;9.10;99.90;;;;;;4978820;28;20477;-85
2021/12/18 07:32:19;;;;;;;22.87;10.03;;;9.10;99.90;;;;;;4976643;28;20030;-85
2021/12/18 07:34:44;;;;;;;24.27;10.77;;;9.10;99.90;;;;;;4976201;28;20035;-85
2021/12/18 07:37:10;;;;;;;22.13;9.87;;;9.10;99.90;;;;;;4961409;28;20404;-85
2021/12/18 07:39:36;;;;;;;21.17;9.30;;;9.10;99.90;;;;;;4961786;28;20054;-84
2021/12/18 07:42:02;;;;;;;28.17;13.60;;;9.20;99.90;;;;;;4960769;28;20062;-85
2021/12/18 07:44:27;;;;;;;24.40;11.17;;;9.20;99.90;;;;;;4959531;28;20039;-85
2021/12/18 07:46:53;;;;;;;21.03;10.30;;;9.10;99.90;;;;;;4975454;28;20057;-85
2021/12/18 07:49:19;;;;;;;23.47;10.23;;;9.20;99.90;;;;;;4975096;28;20044;-84
2021/12/18 07:51:45;;;;;;;24.87;10.70;;;9.10;99.90;;;;;;4975317;28;20038;-85
2021/12/18 07:54:10;;;;;;;22.30;9.87;;;9.10;99.90;;;;;;4975084;28;20030;-85
2021/12/18 07:56:36;;;;;;;21.93;10.07;;;9.10;99.90;;;;;;4960172;28;20220;-86
2021/12/18 07:59:02;;;;;;;22.97;10.30;;;9.10;99.90;;;;;;4975772;28;20030;-86
2021/12/18 08:01:30;;;;;;;19.67;9.57;;;9.00;99.90;;;;;;4980375;28;20057;-85
2021/12/18 08:03:58;;;;;;;25.70;10.33;;;9.10;99.90;;;;;;4992585;28;20042;-85
2021/12/18 08:06:23;;;;;;;21.37;9.93;;;9.00;99.90;;;;;;4976726;28;20061;-87
2021/12/18 08:08:50;;;;;;;20.83;10.63;;;9.10;99.90;;;;;;4972128;28;20039;-85
2021/12/18 08:11:16;;;;;;;24.47;10.83;;;9.10;99.90;;;;;;4971606;28;20034;-86
2021/12/18 08:13:43;;;;;;;27.07;12.00;;;9.10;99.90;;;;;;5004753;28;20026;-86
2021/12/18 08:16:09;;;;;;;25.37;11.30;;;9.20;99.90;;;;;;4988713;28;20038;-87
2021/12/18 08:18:34;;;;;;;29.33;12.37;;;9.10;99.90;;;;;;4987210;28;20033;-86
2021/12/18 08:21:00;;;;;;;28.50;12.13;;;9.10;99.90;;;;;;5006370;28;20436;-86
2021/12/18 08:23:26;;;;;;;23.53;11.50;;;9.20;99.90;;;;;;4988631;28;20068;-86
2021/12/18 08:25:54;;;;;;;27.90;12.03;;;9.20;99.90;;;;;;4989315;28;20034;-86
2021/12/18 08:28:20;;;;;;;30.63;12.97;;;9.20;99.90;;;;;;4988262;28;20030;-87
2021/12/18 08:30:46;;;;;;;30.27;12.87;;;9.20;99.90;;;;;;4990352;28;20040;-87
2021/12/18 08:33:12;;;;;;;27.13;11.80;;;9.20;99.90;;;;;;4991784;28;20027;-87
2021/12/18 08:35:37;;;;;;;30.57;14.20;;;9.30;99.90;;;;;;4975629;28;20488;-87
2021/12/18 08:38:05;;;;;;;26.47;12.93;;;9.30;99.90;;;;;;4975341;28;20046;-86
2021/12/18 08:40:32;;;;;;;29.07;12.73;;;9.30;99.90;;;;;;4975971;28;20038;-86
2021/12/18 08:42:58;;;;;;;32.93;14.70;;;9.30;99.90;;;;;;4991735;28;20030;-86
2021/12/18 08:45:24;;;;;;;40.43;15.93;;;9.40;99.90;;;;;;4991692;28;20038;-86
2021/12/18 08:47:52;;;;;;;35.40;14.00;;;9.30;99.90;;;;;;4975406;28;20069;-86
2021/12/18 08:50:20;;;;;;;35.77;14.93;;;9.40;99.90;;;;;;5007335;28;20045;-86
2021/12/18 08:52:48;;;;;;;35.63;15.85;;;9.30;99.90;;;;;;4977789;28;20066;-87
2021/12/18 08:55:15;;;;;;;34.87;14.47;;;9.30;99.90;;;;;;4959704;28;20080;-87
2021/12/18 08:57:42;;;;;;;29.70;12.83;;;9.30;99.90;;;;;;4976334;28;20027;-87
2021/12/18 09:00:11;;;;;;;24.57;10.63;;;9.30;99.90;;;;;;4959714;28;20091;-87
2021/12/18 09:02:40;;;;;;;22.10;10.67;;;9.30;99.90;;;;;;4992444;28;20088;-87
2021/12/18 09:05:07;;;;;;;20.92;10.63;;;9.30;99.90;;;;;;4958366;28;20030;-86
2021/12/18 09:07:33;;;;;;;20.83;10.07;;;9.30;99.90;;;;;;4992115;28;20505;-86
2021/12/18 09:09:59;;;;;;;18.93;9.43;;;9.30;99.90;;;;;;4962172;28;20441;-85
2021/12/18 09:12:25;;;;;;;20.10;9.03;;;9.30;99.90;;;;;;4978083;28;20034;-87
2021/12/18 09:14:52;;;;;;;17.60;8.83;;;9.30;99.90;;;;;;4995451;28;20041;-87
2021/12/18 09:17:18;;;;;;;16.63;8.20;;;9.20;99.90;;;;;;4995385;28;20031;-86
2021/12/18 09:19:45;;;;;;;14.40;7.00;;;9.20;99.90;;;;;;4977837;28;20420;-87
2021/12/18 09:22:11;;;;;;;14.37;7.07;;;9.30;99.90;;;;;;4961570;28;20030;-86
2021/12/18 09:24:38;;;;;;;18.03;8.57;;;9.20;99.90;;;;;;4961912;28;20049;-87
2021/12/18 09:27:04;;;;;;;15.27;6.17;;;9.30;99.90;;;;;;4995501;28;20100;-87
2021/12/18 09:29:30;;;;;;;11.70;5.73;;;9.30;99.90;;;;;;4962368;28;20040;-86
2021/12/18 09:31:56;;;;;;;13.67;6.37;;;9.20;99.90;;;;;;4978342;28;20493;-87
2021/12/18 09:34:22;;;;;;;11.00;5.50;;;9.30;99.90;;;;;;4961458;28;20038;-86
2021/12/18 09:36:48;;;;;;;11.63;5.20;;;9.20;99.90;;;;;;4977660;28;20042;-87
2021/12/18 09:39:14;;;;;;;10.27;4.87;;;9.20;99.90;;;;;;4961999;28;20026;-87
2021/12/18 09:41:42;;;;;;;11.53;5.27;;;9.20;99.90;;;;;;4978236;28;20437;-87
2021/12/18 09:44:08;;;;;;;9.00;4.60;;;9.20;99.90;;;;;;4962337;28;20030;-87
2021/12/18 09:46:34;;;;;;;10.00;4.90;;;9.20;99.90;;;;;;4978559;28;20494;-87
2021/12/18 09:49:01;;;;;;;12.20;5.50;;;9.20;99.90;;;;;;4978212;28;20078;-87
2021/12/18 09:51:27;;;;;;;11.53;5.30;;;9.20;99.90;;;;;;4978640;28;20038;-87
2021/12/18 09:53:57;;;;;;;10.70;5.23;;;9.20;99.90;;;;;;4978532;28;20033;-86
2021/12/18 09:56:24;;;;;;;12.03;4.97;;;9.20;99.90;;;;;;4962963;28;20062;-87
2021/12/18 09:58:51;;;;;;;11.13;4.70;;;9.20;99.90;;;;;;4994178;28;20671;-87
2021/12/18 10:01:17;;;;;;;9.10;4.30;;;9.30;99.90;;;;;;4961613;28;20476;-86
2021/12/18 10:03:58;;;;;;;10.50;4.80;;;9.30;99.90;;;;;;4978434;28;20034;-87
2021/12/18 10:06:44;;;;;;;9.00;4.40;;;9.30;99.90;;;;;;4978120;28;20105;-87
2021/12/18 10:09:17;;;;;;;11.00;4.80;;;9.20;99.90;;;;;;4977753;28;20089;-86
2021/12/18 10:11:49;;;;;;;8.13;4.40;;;9.20;99.90;;;;;;4995629;28;20041;-89
2021/12/18 10:14:16;;;;;;;9.63;4.60;;;9.30;99.90;;;;;;4978897;28;20038;-90
2021/12/18 10:25:03;;;;;;;10.13;4.70;;;9.30;99.90;;;;;;5034031;28;20058;-90
2021/12/18 10:27:29;;;;;;;10.07;4.67;;;9.30;99.90;;;;;;5033072;28;20026;-87
2021/12/18 10:30:20;;;;;;;9.93;4.60;;;9.30;99.90;;;;;;5004333;28;20036;-92
2021/12/18 10:33:08;;;;;;;10.93;4.70;;;9.30;99.90;;;;;;5000458;28;20026;-86
2021/12/18 10:35:43;;;;;;;13.33;4.70;;;9.30;99.90;;;;;;5033504;28;20048;-85
2021/12/18 10:38:38;;;;;;;12.50;4.77;;;9.30;99.90;;;;;;5015298;28;20032;-85
2021/12/18 10:41:29;;;;;;;11.97;4.63;;;9.30;99.90;;;;;;4999398;28;20025;-85
2021/12/18 10:44:02;;;;;;;13.83;4.67;;;9.30;99.90;;;;;;5016570;28;20128;-85
2021/12/18 10:46:30;;;;;;;16.70;5.87;;;9.30;99.90;;;;;;5022679;28;20038;-85
2021/12/18 10:49:11;;;;;;;19.17;6.63;;;9.30;99.90;;;;;;5000205;28;20034;-84
2021/12/18 10:51:38;;;;;;;17.17;6.20;;;9.30;99.90;;;;;;5000577;28;20057;-85
2021/12/18 10:54:24;;;;;;;21.30;7.13;;;9.20;99.90;;;;;;5000562;28;20040;-85
2021/12/18 10:56:55;;;;;;;18.00;8.00;;;9.30;99.90;;;;;;5000487;28;20026;-84
2021/12/18 10:59:34;;;;;;;23.83;10.50;;;9.30;99.90;;;;;;5016630;28;20034;-85
2021/12/18 11:02:10;;;;;;;26.75;12.18;;;9.30;99.90;;;;;;5032631;28;20100;-85
2021/12/18 11:04:39;;;;;;;23.17;11.53;;;9.30;99.90;;;;;;5016361;28;20068;-85
2021/12/18 11:07:25;;;;;;;23.42;12.40;;;9.30;99.90;;;;;;5032921;28;20503;-85
2021/12/18 11:10:18;;;;;;;24.80;12.73;;;9.20;99.90;;;;;;5032673;28;20120;-85
2021/12/18 11:15:21;;;;;;;28.50;13.93;;;9.10;99.90;;;;;;5033047;28;20041;-85
2021/12/18 11:17:47;;;;;;;28.47;14.00;;;9.10;99.90;;;;;;5015566;28;20083;-85
2021/12/18 11:20:13;;;;;;;30.43;14.13;;;9.00;99.90;;;;;;5032511;28;20029;-86
2021/12/18 11:22:39;;;;;;;29.63;14.53;;;9.00;99.90;;;;;;5017026;28;20052;-85
2021/12/18 11:25:09;;;;;;;32.23;15.87;;;9.00;99.90;;;;;;5019782;28;20060;-89
2021/12/18 11:27:35;;;;;;;33.07;16.10;;;9.00;99.90;;;;;;5020022;28;20029;-87
2021/12/18 11:30:17;;;;;;;30.23;14.87;;;9.00;99.90;;;;;;5017572;28;20274;-85
2021/12/18 11:32:54;;;;;;;31.93;15.00;;;9.00;99.90;;;;;;4999421;28;20455;-85
2021/12/18 11:35:21;;;;;;;40.47;18.23;;;9.00;99.90;;;;;;5015932;28;20146;-85
2021/12/18 11:37:51;;;;;;;40.60;20.07;;;9.00;99.90;;;;;;5015529;28;20029;-85
2021/12/18 11:40:25;;;;;;;40.40;19.87;;;9.00;99.90;;;;;;5017520;28;20096;-85
2021/12/18 11:42:52;;;;;;;48.50;23.73;;;9.00;99.90;;;;;;5016247;28;20377;-85
2021/12/18 11:45:17;;;;;;;49.23;24.00;;;9.00;99.90;;;;;;5015833;28;20072;-85
2021/12/18 11:47:56;;;;;;;50.83;25.67;;;9.00;99.90;;;;;;5015576;28;20119;-85
2021/12/18 11:50:22;;;;;;;55.42;24.83;;;9.10;99.90;;;;;;5016304;28;20655;-85
2021/12/18 11:53:03;;;;;;;58.73;26.30;;;9.00;99.90;;;;;;5015900;28;20040;-85
2021/12/18 11:55:36;;;;;;;57.87;25.33;;;9.10;99.90;;;;;;5033023;28;20033;-85
2021/12/18 11:58:14;;;;;;;60.60;25.83;;;9.10;99.90;;;;;;5014313;28;20124;-85
2021/12/18 12:01:05;;;;;;;50.13;22.90;;;9.10;99.90;;;;;;5015358;28;20429;-86
2021/12/18 12:03:56;;;;;;;48.33;21.43;;;9.10;99.90;;;;;;5014583;28;20033;-85
2021/12/18 12:06:33;;;;;;;48.97;21.73;;;9.10;99.90;;;;;;4991738;28;20037;-85
2021/12/18 12:09:38;;;;;;;52.47;23.50;;;9.10;99.90;;;;;;5013804;28;20048;-84
2021/12/18 12:12:05;;;;;;;60.17;24.83;;;9.10;99.90;;;;;;5016826;28;20029;-84
2021/12/18 12:14:39;;;;;;;51.17;23.47;;;9.10;99.90;;;;;;5017798;28;20044;-85
2021/12/18 12:17:30;;;;;;;56.20;24.30;;;9.10;99.90;;;;;;5033608;28;20029;-85
2021/12/18 12:20:41;;;;;;;54.50;23.93;;;9.10;99.90;;;;;;5032187;28;20348;-85
2021/12/18 12:23:09;;;;;;;62.27;23.47;;;9.10;99.90;;;;;;5031117;28;20033;-84
2021/12/18 12:25:39;;;;;;;51.20;19.93;;;9.00;99.90;;;;;;5027429;28;20091;-84
2021/12/18 12:28:21;;;;;;;39.43;17.37;;;9.10;99.90;;;;;;5013837;28;20038;-85
2021/12/18 12:30:52;;;;;;;29.70;12.47;;;9.00;99.90;;;;;;5033217;28;20029;-85
2021/12/18 12:33:33;;;;;;;23.60;10.73;;;9.00;99.90;;;;;;5015722;28;20035;-85
2021/12/18 12:36:05;;;;;;;21.73;10.50;;;9.00;99.90;;;;;;4999580;28;20095;-84
2021/12/18 12:38:41;;;;;;;18.70;7.70;;;9.00;99.90;;;;;;5016180;28;20029;-85
2021/12/18 12:41:38;;;;;;;20.80;8.50;;;9.00;99.90;;;;;;4969878;28;24319;-88
2021/12/18 12:44:38;;;;;;;25.93;12.70;;;9.00;99.90;;;;;;4999576;28;20534;-86
2021/12/18 12:47:32;;;;;;;32.87;14.50;;;8.90;99.90;;;;;;4996575;28;20037;-87
2021/12/18 12:50:14;;;;;;;32.50;15.57;;;8.90;99.90;;;;;;5015715;28;20060;-87
2021/12/18 12:53:07;;;;;;;26.40;13.10;;;9.00;99.90;;;;;;5015555;28;20045;-89
2021/12/18 12:55:47;;;;;;;26.83;11.67;;;8.80;99.90;;;;;;5000461;28;20042;-90
2021/12/18 12:58:25;;;;;;;32.27;12.63;;;8.90;99.90;;;;;;4997907;28;20398;-87
2021/12/18 13:01:00;;;;;;;34.90;14.00;;;8.90;99.90;;;;;;4999035;28;20120;-87
2021/12/18 13:03:33;;;;;;;35.47;15.47;;;8.90;99.90;;;;;;5000450;28;20025;-87
2021/12/18 13:06:09;;;;;;;32.43;14.00;;;8.90;99.90;;;;;;4999890;28;20052;-86
2021/12/18 13:08:39;;;;;;;35.53;13.80;;;8.90;99.90;;;;;;5015027;28;20030;-87
2021/12/18 13:11:06;;;;;;;33.43;14.90;;;8.80;99.90;;;;;;4999072;28;20060;-86
2021/12/18 13:13:34;;;;;;;46.67;18.63;;;8.80;99.90;;;;;;4998937;28;20025;-87
2021/12/18 13:16:14;;;;;;;59.67;22.77;;;8.80;99.90;;;;;;5031001;28;20017;-86
2021/12/18 13:18:41;;;;;;;58.17;21.97;;;8.70;99.90;;;;;;4997660;28;20090;-87
2021/12/18 13:21:15;;;;;;;54.17;21.80;;;8.60;99.90;;;;;;4998351;28;20049;-86
2021/12/18 13:23:59;;;;;;;52.53;21.17;;;8.60;99.90;;;;;;5016504;28;20488;-87
2021/12/18 13:26:33;;;;;;;56.90;22.23;;;8.60;99.90;;;;;;5016162;28;20376;-87
2021/12/18 13:29:06;;;;;;;42.77;17.53;;;8.60;99.90;;;;;;4997860;28;20036;-86
2021/12/18 13:31:35;;;;;;;29.27;12.60;;;8.60;99.90;;;;;;4999214;28;20052;-87
2021/12/18 13:34:08;;;;;;;28.52;12.85;;;8.70;99.90;;;;;;5015112;28;20029;-87
2021/12/18 13:36:41;;;;;;;22.17;10.27;;;8.70;99.90;;;;;;4999021;28;20076;-87
2021/12/18 13:39:09;;;;;;;18.03;8.93;;;8.70;99.90;;;;;;4998907;28;20026;-86
2021/12/18 13:41:35;;;;;;;25.07;11.33;;;8.80;99.90;;;;;;4999550;28;20029;-86
2021/12/18 13:44:01;;;;;;;27.90;15.07;;;8.80;99.90;;;;;;5003125;28;20447;-86
2021/12/18 13:46:31;;;;;;;35.40;18.13;;;8.70;99.90;;;;;;5018119;28;20033;-86